createdAt,value
2022-11-20T00:00:55.598Z,45.40
2022-11-20T00:03:22.629Z,42.70
2022-11-20T00:05:49.052Z,47.30
2022-11-20T00:08:15.639Z,47.30
2022-11-20T00:10:42.155Z,49.40
2022-11-20T00:13:09.021Z,52.60
2022-11-20T00:15:35.663Z,59.10
2022-11-20T00:18:02.084Z,55.30
2022-11-20T00:20:28.783Z,57.50
2022-11-20T00:22:55.215Z,54.50
2022-11-20T00:25:21.808Z,55.50
2022-11-20T00:27:48.304Z,51.00
2022-11-20T00:30:15.343Z,50.60
2022-11-20T00:32:41.963Z,50.50
2022-11-20T00:35:08.438Z,49.40
2022-11-20T00:37:36.446Z,47.00
2022-11-20T00:40:03.218Z,44.90
2022-11-20T00:42:29.654Z,47.60
2022-11-20T00:44:56.182Z,40.90
2022-11-20T00:47:22.845Z,43.60
2022-11-20T00:49:49.277Z,42.30
2022-11-20T00:52:15.912Z,42.90
2022-11-20T00:54:42.296Z,44.40
2022-11-20T00:57:08.800Z,44.10
2022-11-20T00:59:35.419Z,44.40
2022-11-20T01:02:01.795Z,42.20
2022-11-20T01:04:28.208Z,44.10
2022-11-20T01:06:54.718Z,43.20
2022-11-20T01:09:21.262Z,41.00
2022-11-20T01:11:47.943Z,40.40
2022-11-20T01:14:17.484Z,38.30
2022-11-20T01:16:52.192Z,38.00
2022-11-20T01:19:22.037Z,35.90
2022-11-20T01:21:52.011Z,36.30
2022-11-20T01:24:20.034Z,35.20
2022-11-20T01:26:49.322Z,35.20
2022-11-20T01:29:18.699Z,36.10
2022-11-20T01:31:46.115Z,36.10
2022-11-20T01:34:16.456Z,36.80
2022-11-20T01:36:43.733Z,33.60
2022-11-20T01:39:25.417Z,33.40
2022-11-20T01:41:53.969Z,35.50
2022-11-20T01:44:23.967Z,36.30
2022-11-20T01:47:00.021Z,40.70
2022-11-20T01:49:39.747Z,35.40
2022-11-20T01:52:19.255Z,38.60
2022-11-20T01:54:57.105Z,37.60
2022-11-20T01:57:28.469Z,36.10
2022-11-20T02:00:01.574Z,33.70
2022-11-20T02:02:28.968Z,37.10
2022-11-20T02:05:01.828Z,35.80
2022-11-20T02:07:28.913Z,35.50
2022-11-20T02:09:58.699Z,35.90
2022-11-20T02:12:25.739Z,34.80
2022-11-20T02:14:52.377Z,35.70
2022-11-20T02:17:18.818Z,34.40
2022-11-20T02:19:45.360Z,36.00
2022-11-20T02:22:30.178Z,34.30
2022-11-20T02:24:59.931Z,36.70
2022-11-20T02:27:27.631Z,36.20
2022-11-20T02:30:05.391Z,35.60
2022-11-20T02:32:34.604Z,34.80
2022-11-20T02:35:19.189Z,35.70
2022-11-20T02:37:48.770Z,35.50
2022-11-20T02:40:15.619Z,33.60
2022-11-20T02:42:42.227Z,39.40
2022-11-20T02:45:09.289Z,36.40
2022-11-20T02:47:35.875Z,39.30
2022-11-20T02:50:02.370Z,43.30
2022-11-20T02:52:28.955Z,47.40
2022-11-20T02:54:55.715Z,39.90
2022-11-20T02:57:22.334Z,40.50
2022-11-20T02:59:48.754Z,38.80
2022-11-20T03:02:15.318Z,38.50
2022-11-20T03:04:41.856Z,40.90
2022-11-20T03:07:08.950Z,40.80
2022-11-20T03:09:35.347Z,40.70
2022-11-20T03:12:03.540Z,38.60
2022-11-20T03:14:30.282Z,40.90
2022-11-20T03:16:57.239Z,40.40
2022-11-20T03:19:25.349Z,38.70
2022-11-20T03:21:52.003Z,40.80
2022-11-20T03:24:18.480Z,38.70
2022-11-20T03:26:45.020Z,40.10
2022-11-20T03:29:11.764Z,39.80
2022-11-20T03:31:41.279Z,39.40
2022-11-20T03:34:09.757Z,41.20
2022-11-20T03:36:39.271Z,40.80
2022-11-20T03:39:05.847Z,42.30
2022-11-20T03:41:38.432Z,40.60
2022-11-20T03:44:07.613Z,40.10
2022-11-20T03:46:34.731Z,40.70
2022-11-20T03:49:01.277Z,40.30
2022-11-20T03:51:30.767Z,41.80
2022-11-20T03:54:00.086Z,41.60
2022-11-20T03:56:29.728Z,41.60
2022-11-20T03:58:56.715Z,40.50
2022-11-20T04:01:29.498Z,41.80
2022-11-20T04:03:57.727Z,41.80
2022-11-20T04:06:30.530Z,43.80
2022-11-20T04:08:58.697Z,43.00
2022-11-20T04:11:28.165Z,44.10
2022-11-20T04:14:04.474Z,42.20
2022-11-20T04:16:34.299Z,46.00
2022-11-20T04:19:03.282Z,44.40
2022-11-20T04:21:30.074Z,42.90
2022-11-20T04:23:58.101Z,44.10
2022-11-20T04:26:26.914Z,43.40
2022-11-20T04:28:55.069Z,45.20
2022-11-20T04:31:24.143Z,43.30
2022-11-20T04:33:51.015Z,43.60
2022-11-20T04:36:20.318Z,42.80
2022-11-20T04:38:51.373Z,44.20
2022-11-20T04:41:24.124Z,41.10
2022-11-20T04:43:52.356Z,44.70
2022-11-20T04:46:20.600Z,43.20
2022-11-20T04:48:48.406Z,40.40
2022-11-20T04:51:15.319Z,42.50
2022-11-20T04:53:43.093Z,40.30
2022-11-20T04:56:13.208Z,39.80
2022-11-20T04:58:40.669Z,38.20
2022-11-20T05:01:08.572Z,38.90
2022-11-20T05:03:39.712Z,40.50
2022-11-20T05:06:10.769Z,38.00
2022-11-20T05:08:37.643Z,37.20
2022-11-20T05:11:13.033Z,37.80
2022-11-20T05:13:40.079Z,35.60
2022-11-20T05:16:13.270Z,35.60
2022-11-20T05:18:41.608Z,33.90
2022-11-20T05:21:09.954Z,39.00
2022-11-20T05:23:36.476Z,36.20
2022-11-20T05:26:04.291Z,36.90
2022-11-20T05:28:31.807Z,35.30
2022-11-20T05:31:06.774Z,34.30
2022-11-20T05:33:34.622Z,33.40
2022-11-20T05:36:01.520Z,33.70
2022-11-20T05:38:29.646Z,35.90
2022-11-20T05:40:56.288Z,35.50
2022-11-20T05:43:22.828Z,34.90
2022-11-20T05:45:55.530Z,33.40
2022-11-20T05:48:22.027Z,35.60
2022-11-20T05:50:49.610Z,34.00
2022-11-20T05:53:17.691Z,33.00
2022-11-20T05:55:44.231Z,32.40
2022-11-20T05:58:10.654Z,32.80
2022-11-20T06:00:37.523Z,33.80
2022-11-20T06:03:04.104Z,34.80
2022-11-20T06:05:30.589Z,32.10
2022-11-20T06:07:58.670Z,33.70
2022-11-20T06:10:25.097Z,33.50
2022-11-20T06:12:51.488Z,34.20
2022-11-20T06:15:19.625Z,32.40
2022-11-20T06:17:46.048Z,31.30
2022-11-20T06:20:12.450Z,30.50
2022-11-20T06:22:39.020Z,30.80
2022-11-20T06:25:05.619Z,29.40
2022-11-20T06:27:32.057Z,30.80
2022-11-20T06:30:00.172Z,31.70
2022-11-20T06:32:26.570Z,30.50
2022-11-20T06:34:53.050Z,31.20
2022-11-20T06:37:19.491Z,33.50
2022-11-20T06:39:45.940Z,33.50
2022-11-20T06:42:12.327Z,45.40
2022-11-20T06:44:40.306Z,51.80
2022-11-20T06:47:06.774Z,60.50
2022-11-20T06:49:33.213Z,57.20
2022-11-20T06:51:59.754Z,51.60
2022-11-20T06:54:26.292Z,56.70
2022-11-20T06:56:52.730Z,55.40
2022-11-20T06:59:19.314Z,75.60
2022-11-20T07:01:46.019Z,58.50
2022-11-20T07:04:12.454Z,46.90
2022-11-20T07:06:38.944Z,45.70
2022-11-20T07:09:09.860Z,57.40
2022-11-20T07:11:38.012Z,52.30
2022-11-20T07:14:04.548Z,53.30
2022-11-20T07:16:30.985Z,52.20
2022-11-20T07:18:57.521Z,54.60
2022-11-20T07:21:23.977Z,48.90
2022-11-20T07:23:50.414Z,44.70
2022-11-20T07:26:16.946Z,45.90
2022-11-20T07:28:45.557Z,44.50
2022-11-20T07:31:17.408Z,49.40
2022-11-20T07:33:45.473Z,46.60
2022-11-20T07:36:11.911Z,45.50
2022-11-20T07:38:39.146Z,42.20
2022-11-20T07:41:05.812Z,44.50
2022-11-20T07:43:34.829Z,45.90
2022-11-20T07:46:05.146Z,41.10
2022-11-20T07:48:31.679Z,41.80
2022-11-20T07:50:58.221Z,41.80
2022-11-20T07:53:25.393Z,32.90
2022-11-20T07:55:53.606Z,32.00
2022-11-20T07:58:21.214Z,30.70
2022-11-20T08:00:47.690Z,35.20
2022-11-20T08:03:14.344Z,37.90
2022-11-20T08:05:40.759Z,40.90
2022-11-20T08:08:07.293Z,40.30
2022-11-20T08:10:33.813Z,35.70
2022-11-20T08:13:00.478Z,32.90
2022-11-20T08:15:27.015Z,33.80
2022-11-20T08:18:28.876Z,35.40
2022-11-20T08:20:46.250Z,39.20
2022-11-20T08:23:12.743Z,37.50
2022-11-20T08:25:39.474Z,32.10
2022-11-20T08:28:18.731Z,31.70
2022-11-20T08:30:47.415Z,29.90
2022-11-20T08:33:13.858Z,31.40
2022-11-20T08:35:40.400Z,28.80
2022-11-20T08:38:06.939Z,29.90
2022-11-20T08:40:34.315Z,31.70
2022-11-20T08:43:00.877Z,29.50
2022-11-20T08:45:32.394Z,30.40
2022-11-20T08:48:02.255Z,30.00
2022-11-20T08:50:30.503Z,28.70
2022-11-20T08:53:02.683Z,30.50
2022-11-20T08:55:29.218Z,31.50
2022-11-20T08:57:55.627Z,33.90
2022-11-20T09:00:22.260Z,30.70
2022-11-20T09:02:48.742Z,30.40
2022-11-20T09:05:15.379Z,31.40
2022-11-20T09:07:41.940Z,29.40
2022-11-20T09:10:25.111Z,29.00
2022-11-20T09:12:52.867Z,29.30
2022-11-20T09:15:20.387Z,28.40
2022-11-20T09:17:57.844Z,29.40
2022-11-20T09:20:24.747Z,28.10
2022-11-20T09:22:51.162Z,28.90
2022-11-20T09:25:18.132Z,30.20
2022-11-20T09:27:45.171Z,29.70
2022-11-20T09:30:13.035Z,30.80
2022-11-20T09:32:40.191Z,30.60
2022-11-20T09:35:07.645Z,29.50
2022-11-20T09:37:34.021Z,29.10
2022-11-20T09:40:00.943Z,27.80
2022-11-20T09:42:47.547Z,26.60
2022-11-20T09:45:38.063Z,29.70
2022-11-20T09:48:42.273Z,31.10
2022-11-20T09:51:16.593Z,31.60
2022-11-20T09:53:52.041Z,31.50
2022-11-20T09:56:22.893Z,31.20
2022-11-20T09:58:56.164Z,32.80
2022-11-20T10:01:29.310Z,31.00
2022-11-20T10:04:03.952Z,34.30
2022-11-20T10:06:31.883Z,31.80
2022-11-20T10:09:05.997Z,31.50
2022-11-20T10:11:45.437Z,32.10
2022-11-20T10:14:11.875Z,34.40
2022-11-20T10:16:57.473Z,43.10
2022-11-20T10:19:45.843Z,80.80
2022-11-20T10:22:36.184Z,32.50
2022-11-20T10:25:10.688Z,41.50
2022-11-20T10:27:59.699Z,44.50
2022-11-20T10:30:26.570Z,41.50
2022-11-20T10:32:57.292Z,32.60
2022-11-20T10:35:58.206Z,32.40
2022-11-20T10:38:31.130Z,19.70
2022-11-20T10:41:02.024Z,31.10
2022-11-20T10:43:35.464Z,25.30
2022-11-20T10:46:07.795Z,27.70
2022-11-20T10:48:34.431Z,31.60
2022-11-20T10:51:11.380Z,31.50
2022-11-20T10:54:05.040Z,29.80
2022-11-20T10:56:49.928Z,28.60
2022-11-20T10:59:35.208Z,28.00
2022-11-20T11:02:03.335Z,25.30
2022-11-20T11:04:38.019Z,26.00
2022-11-20T11:07:20.280Z,23.70
2022-11-20T11:09:53.831Z,23.20
2022-11-20T11:12:24.551Z,23.00
2022-11-20T11:14:55.816Z,20.10
2022-11-20T11:17:34.443Z,19.90
2022-11-20T11:20:03.857Z,19.10
2022-11-20T11:22:33.431Z,21.70
2022-11-20T11:25:02.014Z,20.20
2022-11-20T11:27:28.491Z,22.20
2022-11-20T11:30:16.369Z,23.20
2022-11-20T11:32:43.239Z,20.30
2022-11-20T11:35:29.451Z,25.20
2022-11-20T11:38:05.227Z,22.60
2022-11-20T11:40:37.086Z,21.00
2022-11-20T11:43:08.078Z,22.40
2022-11-20T11:45:34.699Z,24.80
2022-11-20T11:48:04.433Z,23.90
2022-11-20T11:50:31.128Z,24.10
2022-11-20T11:53:18.778Z,23.10
2022-11-20T11:55:57.230Z,24.00
2022-11-20T11:58:49.668Z,23.10
2022-11-20T12:01:31.198Z,23.50
2022-11-20T12:06:35.565Z,31.50
2022-11-20T12:09:12.806Z,28.00
2022-11-20T12:11:59.879Z,29.60
2022-11-20T12:14:37.747Z,29.70
2022-11-20T12:17:05.097Z,27.10
2022-11-20T12:19:34.574Z,24.90
2022-11-20T12:22:33.466Z,25.30
2022-11-20T12:25:18.843Z,23.50
2022-11-20T12:27:56.236Z,22.80
2022-11-20T12:30:23.279Z,21.40
2022-11-20T12:33:13.892Z,22.40
2022-11-20T12:35:59.178Z,22.40
2022-11-20T12:38:30.268Z,21.30
2022-11-20T12:41:05.774Z,23.30
2022-11-20T12:43:43.379Z,23.40
2022-11-20T12:46:15.742Z,25.50
2022-11-20T12:49:23.647Z,27.10
2022-11-20T12:52:03.244Z,26.10
2022-11-20T12:54:46.388Z,28.90
2022-11-20T12:57:31.115Z,28.80
2022-11-20T13:00:19.262Z,29.40
2022-11-20T13:03:10.101Z,28.50
2022-11-20T13:05:59.459Z,30.40
2022-11-20T13:08:30.493Z,29.80
2022-11-20T13:11:09.637Z,31.10
2022-11-20T13:13:54.816Z,29.30
2022-11-20T13:16:41.945Z,26.50
2022-11-20T13:19:17.711Z,28.60
2022-11-20T13:21:46.919Z,25.70
2022-11-20T13:24:24.198Z,25.40
2022-11-20T13:27:21.917Z,28.00
2022-11-20T13:30:02.564Z,31.00
2022-11-20T13:32:29.394Z,29.30
2022-11-20T13:34:58.917Z,26.10
2022-11-20T13:37:29.631Z,26.80
2022-11-20T13:40:08.876Z,27.50
2022-11-20T13:42:46.681Z,26.20
2022-11-20T13:45:25.306Z,25.60
2022-11-20T13:47:53.921Z,25.00
2022-11-20T13:50:32.413Z,24.60
2022-11-20T13:53:21.587Z,25.50
2022-11-20T13:56:05.843Z,25.60
2022-11-20T13:58:53.582Z,26.70
2022-11-20T14:01:27.853Z,25.60
2022-11-20T14:04:10.123Z,27.00
2022-11-20T14:06:45.364Z,26.70
2022-11-20T14:09:25.054Z,26.90
2022-11-20T14:11:51.548Z,27.70
2022-11-20T14:14:21.875Z,27.90
2022-11-20T14:16:50.199Z,27.80
2022-11-20T14:19:22.535Z,27.40
2022-11-20T14:21:54.409Z,30.90
2022-11-20T14:24:24.102Z,33.90
2022-11-20T14:26:52.383Z,32.60
2022-11-20T14:29:22.404Z,31.60
2022-11-20T14:31:54.372Z,35.60
2022-11-20T14:34:26.965Z,34.80
2022-11-20T14:37:00.345Z,54.40
2022-11-20T14:39:33.990Z,52.80
2022-11-20T14:42:00.702Z,47.90
2022-11-20T14:44:34.041Z,44.10
2022-11-20T14:47:02.936Z,40.90
2022-11-20T14:49:32.609Z,61.10
2022-11-20T14:52:01.933Z,68.00
2022-11-20T14:54:28.570Z,47.40
2022-11-20T14:57:00.431Z,64.60
2022-11-20T14:59:32.691Z,289.30
2022-11-20T15:02:05.171Z,114.30
2022-11-20T15:04:31.640Z,135.00
2022-11-20T15:07:00.070Z,91.70
2022-11-20T15:09:26.560Z,72.00
2022-11-20T15:12:04.114Z,58.10
2022-11-20T15:14:31.986Z,59.10
2022-11-20T15:16:58.374Z,84.80
2022-11-20T15:19:26.701Z,82.10
2022-11-20T15:21:53.905Z,82.80
2022-11-20T15:24:21.658Z,90.60
2022-11-20T15:26:48.478Z,67.10
2022-11-20T15:29:17.639Z,64.60
2022-11-20T15:31:44.051Z,93.50
2022-11-20T15:34:13.066Z,101.20
2022-11-20T15:36:40.561Z,103.60
2022-11-20T15:39:07.464Z,131.80
2022-11-20T15:41:35.797Z,100.20
2022-11-20T15:44:03.057Z,114.50
2022-11-20T15:46:32.776Z,96.80
2022-11-20T15:49:01.180Z,112.50
2022-11-20T15:51:31.432Z,123.10
2022-11-20T15:53:58.664Z,110.90
2022-11-20T15:56:25.862Z,110.40
2022-11-20T15:58:52.406Z,114.10
2022-11-20T16:01:21.961Z,116.50
2022-11-20T16:03:48.920Z,114.60
2022-11-20T16:06:15.529Z,118.50
2022-11-20T16:08:41.997Z,114.00
2022-11-20T16:11:13.689Z,115.40
2022-11-20T16:13:40.545Z,103.90
2022-11-20T16:16:12.874Z,101.20
2022-11-20T16:18:39.464Z,93.10
2022-11-20T16:21:12.587Z,91.50
2022-11-20T16:23:39.023Z,82.50
2022-11-20T16:26:13.775Z,81.00
2022-11-20T16:28:40.630Z,83.50
2022-11-20T16:31:15.761Z,119.50
2022-11-20T16:33:42.708Z,125.30
2022-11-20T16:36:15.243Z,117.40
2022-11-20T16:38:42.734Z,110.60
2022-11-20T16:41:10.190Z,113.50
2022-11-20T16:43:36.750Z,108.80
2022-11-20T16:46:05.049Z,109.70
2022-11-20T16:48:31.550Z,151.30
2022-11-20T16:50:58.102Z,175.20
2022-11-20T16:53:24.745Z,121.70
2022-11-20T16:55:51.133Z,103.60
2022-11-20T16:58:17.659Z,115.40
2022-11-20T17:00:50.113Z,126.10
2022-11-20T17:03:17.868Z,203.20
2022-11-20T17:05:44.413Z,228.30
2022-11-20T17:08:11.050Z,239.60
2022-11-20T17:10:37.529Z,199.00
2022-11-20T17:13:04.031Z,200.90
2022-11-20T17:15:31.472Z,196.50
2022-11-20T17:17:58.029Z,189.50
2022-11-20T17:20:24.427Z,193.80
2022-11-20T17:22:50.874Z,158.60
2022-11-20T17:25:17.359Z,161.70
2022-11-20T17:27:43.779Z,146.50
2022-11-20T17:30:10.412Z,190.90
2022-11-20T17:32:36.881Z,184.30
2022-11-20T17:35:03.397Z,159.20
2022-11-20T17:37:29.797Z,136.00
2022-11-20T17:39:56.219Z,136.20
2022-11-20T17:42:22.603Z,133.60
2022-11-20T17:44:48.990Z,128.70
2022-11-20T17:47:15.506Z,124.10
2022-11-20T17:49:42.317Z,118.00
2022-11-20T17:52:08.820Z,121.30
2022-11-20T17:54:35.298Z,117.00
2022-11-20T17:57:01.845Z,131.30
2022-11-20T17:59:28.480Z,131.60
2022-11-20T18:01:56.704Z,148.60
2022-11-20T18:04:25.501Z,157.20
2022-11-20T18:06:52.395Z,141.20
2022-11-20T18:09:18.931Z,136.00
2022-11-20T18:11:45.573Z,124.00
2022-11-20T18:14:15.697Z,126.40
2022-11-20T18:16:44.730Z,122.40
2022-11-20T18:19:12.955Z,111.90
2022-11-20T18:21:39.389Z,124.70
2022-11-20T18:24:06.561Z,122.60
2022-11-20T18:26:33.100Z,126.90
2022-11-20T18:29:04.567Z,128.80
2022-11-20T18:31:33.855Z,131.80
2022-11-20T18:34:00.261Z,134.00
2022-11-20T18:36:29.401Z,158.90
2022-11-20T18:38:58.351Z,129.60
2022-11-20T18:41:29.501Z,127.20
2022-11-20T18:43:56.332Z,138.60
2022-11-20T18:46:22.819Z,131.60
2022-11-20T18:48:49.215Z,282.60
2022-11-20T18:51:15.807Z,203.80
2022-11-20T18:53:47.162Z,137.50
2022-11-20T18:56:14.171Z,121.50
2022-11-20T18:58:41.174Z,109.70
2022-11-20T19:01:08.622Z,164.70
2022-11-20T19:03:35.389Z,215.30
2022-11-20T19:06:02.008Z,179.10
2022-11-20T19:08:28.849Z,227.30
2022-11-20T19:10:55.796Z,213.00
2022-11-20T19:13:22.336Z,224.90
2022-11-20T19:15:48.813Z,232.80
2022-11-20T19:18:15.284Z,197.40
2022-11-20T19:20:42.060Z,209.50
2022-11-20T19:23:08.593Z,212.20
2022-11-20T19:25:38.163Z,234.00
2022-11-20T19:28:05.465Z,224.70
2022-11-20T19:30:33.233Z,218.90
2022-11-20T19:32:59.769Z,182.20
2022-11-20T19:35:26.309Z,146.90
2022-11-20T19:37:54.908Z,141.10
2022-11-20T19:40:21.332Z,142.00
2022-11-20T19:42:47.773Z,182.70
2022-11-20T19:45:14.251Z,168.30
2022-11-20T19:50:27.265Z,159.10
2022-11-20T19:52:58.486Z,149.40
2022-11-20T19:57:52.106Z,144.70
2022-11-20T20:00:26.679Z,149.50
2022-11-20T20:02:57.577Z,146.80
2022-11-20T20:05:24.421Z,151.50
2022-11-20T20:07:50.961Z,149.00
2022-11-20T20:10:17.403Z,138.60
2022-11-20T20:12:44.134Z,133.90
2022-11-20T20:15:10.693Z,140.90
2022-11-20T20:17:37.435Z,158.70
2022-11-20T20:20:04.495Z,151.10
2022-11-20T20:22:31.023Z,154.40
2022-11-20T20:24:57.443Z,181.50
2022-11-20T20:27:23.902Z,189.20
2022-11-20T20:29:50.510Z,186.10
2022-11-20T20:32:17.085Z,232.00
2022-11-20T20:34:43.621Z,213.00
2022-11-20T20:37:10.158Z,165.60
2022-11-20T20:39:36.561Z,158.30
2022-11-20T20:42:03.135Z,135.60
2022-11-20T20:44:29.611Z,122.50
2022-11-20T20:46:56.051Z,137.30
2022-11-20T20:49:22.612Z,150.50
2022-11-20T20:51:49.292Z,154.90
2022-11-20T20:54:15.834Z,140.80
2022-11-20T20:56:42.376Z,146.10
2022-11-20T20:59:08.912Z,118.50
2022-11-20T21:01:35.522Z,131.60
2022-11-20T21:04:02.090Z,127.20
2022-11-20T21:06:28.509Z,132.10
2022-11-20T21:08:54.939Z,128.30
2022-11-20T21:11:21.396Z,130.60
2022-11-20T21:13:48.670Z,139.50
2022-11-20T21:16:17.993Z,130.10
2022-11-20T21:18:44.479Z,120.70
2022-11-20T21:21:13.764Z,126.90
2022-11-20T21:23:40.771Z,119.50
2022-11-20T21:26:08.930Z,122.40
2022-11-20T21:28:37.026Z,120.10
2022-11-20T21:31:25.000Z,128.60
2022-11-20T21:33:52.922Z,133.50
2022-11-20T21:36:25.190Z,152.70
2022-11-20T21:38:53.387Z,110.30
2022-11-20T21:41:19.932Z,123.00
2022-11-20T21:44:09.196Z,110.40
2022-11-20T21:46:38.102Z,102.60
2022-11-20T21:49:04.587Z,107.90
2022-11-20T21:51:31.268Z,128.70
2022-11-20T21:53:57.824Z,135.90
2022-11-20T21:56:25.803Z,135.90
2022-11-20T21:58:54.275Z,135.40
2022-11-20T22:01:23.462Z,133.30
2022-11-20T22:03:52.197Z,134.70
2022-11-20T22:06:19.832Z,132.10
2022-11-20T22:08:47.071Z,135.70
2022-11-20T22:11:16.408Z,136.10
2022-11-20T22:13:43.463Z,122.40
2022-11-20T22:16:10.958Z,119.00
2022-11-20T22:18:46.170Z,110.60
2022-11-20T22:21:14.799Z,119.90
2022-11-20T22:23:41.585Z,119.60
2022-11-20T22:26:13.267Z,132.80
2022-11-20T22:28:40.725Z,143.90
2022-11-20T22:31:09.817Z,151.00
2022-11-20T22:33:38.004Z,166.10
2022-11-20T22:36:15.697Z,161.10
2022-11-20T22:38:42.567Z,144.10
2022-11-20T22:41:12.481Z,150.80
2022-11-20T22:43:40.455Z,152.80
2022-11-20T22:46:12.250Z,186.70
2022-11-20T22:48:40.899Z,155.70
2022-11-20T22:51:10.427Z,157.50
2022-11-20T22:53:37.187Z,140.60
2022-11-20T22:56:05.038Z,144.20
2022-11-20T22:58:31.792Z,154.20
2022-11-20T23:01:12.520Z,148.70
2022-11-20T23:03:40.977Z,149.70
2022-11-20T23:06:08.191Z,146.20
2022-11-20T23:08:34.747Z,149.10
2022-11-20T23:11:03.594Z,121.60
2022-11-20T23:13:30.050Z,120.20
2022-11-20T23:16:05.630Z,117.60
2022-11-20T23:18:34.426Z,116.50
2022-11-20T23:21:19.829Z,110.30
2022-11-20T23:23:51.135Z,109.30
2022-11-20T23:26:19.131Z,107.10
2022-11-20T23:28:45.806Z,101.70
2022-11-20T23:31:14.036Z,104.30
2022-11-20T23:33:43.175Z,96.90
2022-11-20T23:36:10.412Z,95.60
2022-11-20T23:38:37.681Z,108.30
2022-11-20T23:41:05.024Z,103.60
2022-11-20T23:43:32.386Z,95.90
2022-11-20T23:46:00.658Z,97.80
2022-11-20T23:48:32.339Z,97.90
2022-11-20T23:50:59.519Z,110.20
2022-11-20T23:53:26.950Z,94.80
2022-11-20T23:55:55.943Z,94.20
2022-11-20T23:58:24.248Z,84.10
